sensor_id;sensor_type;location;lat;lon;timestamp;pressure;altitude;pressure_sealevel;temperature;humidity
64460;BME280;50828;53.756;21.140;2023-02-14T00:03:04;101208.39;;;4.55;71.01
64460;BME280;50828;53.756;21.140;2023-02-14T00:08:12;101208.73;;;4.53;70.92
64460;BME280;50828;53.756;21.140;2023-02-14T00:13:19;101219.38;;;4.50;71.07
64460;BME280;50828;53.756;21.140;2023-02-14T00:18:27;101217.98;;;4.45;71.18
64460;BME280;50828;53.756;21.140;2023-02-14T00:24:05;101223.89;;;4.44;71.08
64460;BME280;50828;53.756;21.140;2023-02-14T00:29:15;101225.11;;;4.41;71.11
64460;BME280;50828;53.756;21.140;2023-02-14T00:34:25;101227.89;;;4.39;71.39
64460;BME280;50828;53.756;21.140;2023-02-14T00:39:33;101218.99;;;4.34;71.27
64460;BME280;50828;53.756;21.140;2023-02-14T00:44:43;101215.66;;;4.29;71.23
64460;BME280;50828;53.756;21.140;2023-02-14T00:49:51;101218.60;;;4.24;71.25
64460;BME280;50828;53.756;21.140;2023-02-14T00:54:59;101222.61;;;4.22;71.32
64460;BME280;50828;53.756;21.140;2023-02-14T01:00:11;101236.19;;;4.15;71.41
64460;BME280;50828;53.756;21.140;2023-02-14T01:05:17;101238.45;;;4.16;71.67
64460;BME280;50828;53.756;21.140;2023-02-14T01:10:25;101241.06;;;4.14;71.71
64460;BME280;50828;53.756;21.140;2023-02-14T01:15:40;101245.41;;;4.13;71.82
64460;BME280;50828;53.756;21.140;2023-02-14T01:20:48;101252.55;;;4.11;71.99
64460;BME280;50828;53.756;21.140;2023-02-14T01:25:57;101245.92;;;4.07;71.74
64460;BME280;50828;53.756;21.140;2023-02-14T01:31:10;101246.79;;;4.09;72.04
64460;BME280;50828;53.756;21.140;2023-02-14T01:36:21;101249.40;;;4.07;72.19
64460;BME280;50828;53.756;21.140;2023-02-14T01:41:33;101257.05;;;4.04;72.12
64460;BME280;50828;53.756;21.140;2023-02-14T01:46:43;101248.31;;;4.00;72.06
64460;BME280;50828;53.756;21.140;2023-02-14T01:51:53;101256.86;;;3.99;72.19
64460;BME280;50828;53.756;21.140;2023-02-14T01:57:05;101241.50;;;3.95;72.17
64460;BME280;50828;53.756;21.140;2023-02-14T02:02:16;101244.64;;;3.95;72.17
64460;BME280;50828;53.756;21.140;2023-02-14T02:07:30;101245.66;;;3.93;72.35
64460;BME280;50828;53.756;21.140;2023-02-14T02:12:39;101240.77;;;3.91;72.34
64460;BME280;50828;53.756;21.140;2023-02-14T02:17:54;101244.77;;;3.87;72.28
64460;BME280;50828;53.756;21.140;2023-02-14T02:29:19;101246.14;;;3.84;72.40
64460;BME280;50828;53.756;21.140;2023-02-14T02:40:30;101248.38;;;3.78;72.46
64460;BME280;50828;53.756;21.140;2023-02-14T02:45:48;101249.59;;;3.76;72.72
64460;BME280;50828;53.756;21.140;2023-02-14T02:51:22;101243.85;;;3.77;72.65
64460;BME280;50828;53.756;21.140;2023-02-14T02:56:56;101257.25;;;3.76;72.49
64460;BME280;50828;53.756;21.140;2023-02-14T03:02:08;101262.81;;;3.74;72.52
64460;BME280;50828;53.756;21.140;2023-02-14T03:07:18;101269.08;;;3.73;72.78
64460;BME280;50828;53.756;21.140;2023-02-14T03:18:32;101280.93;;;3.73;72.85
64460;BME280;50828;53.756;21.140;2023-02-14T03:24:10;101279.34;;;3.71;72.66
64460;BME280;50828;53.756;21.140;2023-02-14T03:29:30;101278.66;;;3.70;72.91
64460;BME280;50828;53.756;21.140;2023-02-14T03:34:50;101279.66;;;3.66;72.77
64460;BME280;50828;53.756;21.140;2023-02-14T03:40:06;101293.42;;;3.66;72.95
64460;BME280;50828;53.756;21.140;2023-02-14T03:45:19;101293.06;;;3.65;73.14
64460;BME280;50828;53.756;21.140;2023-02-14T03:50:31;101306.32;;;3.67;73.04
64460;BME280;50828;53.756;21.140;2023-02-14T03:55:45;101296.90;;;3.64;73.17
64460;BME280;50828;53.756;21.140;2023-02-14T04:00:58;101302.64;;;3.62;73.05
64460;BME280;50828;53.756;21.140;2023-02-14T04:06:10;101304.56;;;3.63;73.01
64460;BME280;50828;53.756;21.140;2023-02-14T04:11:18;101304.89;;;3.61;73.30
64460;BME280;50828;53.756;21.140;2023-02-14T04:16:29;101300.00;;;3.60;73.03
64460;BME280;50828;53.756;21.140;2023-02-14T04:21:59;101304.34;;;3.58;73.26
64460;BME280;50828;53.756;21.140;2023-02-14T04:27:07;101301.89;;;3.56;73.41
64460;BME280;50828;53.756;21.140;2023-02-14T04:32:19;101311.64;;;3.56;73.41
64460;BME280;50828;53.756;21.140;2023-02-14T04:37:27;101312.16;;;3.55;73.13
64460;BME280;50828;53.756;21.140;2023-02-14T04:42:35;101318.08;;;3.54;73.33
64460;BME280;50828;53.756;21.140;2023-02-14T04:47:43;101322.59;;;3.52;73.37
64460;BME280;50828;53.756;21.140;2023-02-14T04:52:51;101330.92;;;3.49;73.47
64460;BME280;50828;53.756;21.140;2023-02-14T04:57:58;101334.92;;;3.50;73.30
64460;BME280;50828;53.756;21.140;2023-02-14T05:03:06;101336.67;;;3.48;73.54
64460;BME280;50828;53.756;21.140;2023-02-14T05:08:15;101345.04;;;3.48;73.46
64460;BME280;50828;53.756;21.140;2023-02-14T05:13:23;101352.14;;;3.46;73.47
64460;BME280;50828;53.756;21.140;2023-02-14T05:18:30;101345.50;;;3.44;73.55
64460;BME280;50828;53.756;21.140;2023-02-14T05:23:38;101348.98;;;3.42;73.56
64460;BME280;50828;53.756;21.140;2023-02-14T05:28:46;101355.07;;;3.42;73.92
64460;BME280;50828;53.756;21.140;2023-02-14T05:33:56;101362.55;;;3.41;73.91
64460;BME280;50828;53.756;21.140;2023-02-14T05:39:03;101372.30;;;3.41;73.67
64460;BME280;50828;53.756;21.140;2023-02-14T05:44:11;101377.53;;;3.41;73.71
64460;BME280;50828;53.756;21.140;2023-02-14T05:49:19;101376.82;;;3.39;74.08
64460;BME280;50828;53.756;21.140;2023-02-14T05:54:27;101380.84;;;3.41;74.08
64460;BME280;50828;53.756;21.140;2023-02-14T05:59:34;101388.68;;;3.41;73.99
64460;BME280;50828;53.756;21.140;2023-02-14T06:04:42;101391.13;;;3.42;73.97
64460;BME280;50828;53.756;21.140;2023-02-14T06:09:50;101392.17;;;3.43;74.00
64460;BME280;50828;53.756;21.140;2023-02-14T06:14:57;101396.01;;;3.43;74.13
64460;BME280;50828;53.756;21.140;2023-02-14T06:20:06;101397.59;;;3.44;74.12
64460;BME280;50828;53.756;21.140;2023-02-14T06:25:15;101400.20;;;3.45;74.03
64460;BME280;50828;53.756;21.140;2023-02-14T06:30:23;101396.53;;;3.42;74.17
64460;BME280;50828;53.756;21.140;2023-02-14T06:35:32;101398.45;;;3.42;74.14
64460;BME280;50828;53.756;21.140;2023-02-14T06:40:39;101399.48;;;3.42;74.36
64460;BME280;50828;53.756;21.140;2023-02-14T06:45:48;101400.52;;;3.40;74.37
64460;BME280;50828;53.756;21.140;2023-02-14T06:50:56;101394.57;;;3.37;74.14
64460;BME280;50828;53.756;21.140;2023-02-14T06:56:05;101402.41;;;3.39;74.28
64460;BME280;50828;53.756;21.140;2023-02-14T07:01:14;101402.94;;;3.39;74.46
64460;BME280;50828;53.756;21.140;2023-02-14T07:06:21;101410.06;;;3.38;74.57
64460;BME280;50828;53.756;21.140;2023-02-14T07:11:29;101407.13;;;3.39;74.60
64460;BME280;50828;53.756;21.140;2023-02-14T07:16:37;101417.39;;;3.39;74.51
64460;BME280;50828;53.756;21.140;2023-02-14T07:21:45;101424.55;;;3.40;74.55
64460;BME280;50828;53.756;21.140;2023-02-14T07:26:53;101431.69;;;3.40;74.69
64460;BME280;50828;53.756;21.140;2023-02-14T07:32:02;101435.52;;;3.42;74.42
64460;BME280;50828;53.756;21.140;2023-02-14T07:37:10;101436.42;;;3.43;74.53
64460;BME280;50828;53.756;21.140;2023-02-14T07:42:18;101439.04;;;3.45;74.68
64460;BME280;50828;53.756;21.140;2023-02-14T07:47:26;101436.95;;;3.44;74.50
64460;BME280;50828;53.756;21.140;2023-02-14T07:52:34;101451.59;;;3.46;74.74
64460;BME280;50828;53.756;21.140;2023-02-14T07:57:42;101448.32;;;3.48;74.71
64460;BME280;50828;53.756;21.140;2023-02-14T08:02:50;101446.41;;;3.48;74.59
64460;BME280;50828;53.756;21.140;2023-02-14T08:07:57;101449.22;;;3.51;74.60
64460;BME280;50828;53.756;21.140;2023-02-14T08:13:06;101449.58;;;3.52;74.71
64460;BME280;50828;53.756;21.140;2023-02-14T08:18:15;101457.63;;;3.56;74.75
64460;BME280;50828;53.756;21.140;2023-02-14T08:23:23;101457.11;;;3.58;74.80
64460;BME280;50828;53.756;21.140;2023-02-14T08:28:31;101463.08;;;3.60;74.61
64460;BME280;50828;53.756;21.140;2023-02-14T08:33:40;101471.29;;;3.63;74.55
64460;BME280;50828;53.756;21.140;2023-02-14T08:38:50;101479.69;;;3.67;74.88
64460;BME280;50828;53.756;21.140;2023-02-14T08:43:58;101483.38;;;3.70;74.64
64460;BME280;50828;53.756;21.140;2023-02-14T08:49:07;101486.20;;;3.74;74.76
64460;BME280;50828;53.756;21.140;2023-02-14T08:54:16;101497.56;;;3.77;74.64
64460;BME280;50828;53.756;21.140;2023-02-14T08:59:24;101501.26;;;3.80;74.48
64460;BME280;50828;53.756;21.140;2023-02-14T09:04:32;101505.98;;;3.83;74.64
64460;BME280;50828;53.756;21.140;2023-02-14T09:09:40;101510.73;;;3.88;74.58
64460;BME280;50828;53.756;21.140;2023-02-14T09:14:49;101509.20;;;3.91;74.54
64460;BME280;50828;53.756;21.140;2023-02-14T09:19:56;101516.91;;;3.96;74.59
64460;BME280;50828;53.756;21.140;2023-02-14T09:25:05;101524.45;;;4.01;74.57
64460;BME280;50828;53.756;21.140;2023-02-14T09:30:15;101522.40;;;4.06;74.56
64460;BME280;50828;53.756;21.140;2023-02-14T09:35:22;101527.48;;;4.10;74.27
64460;BME280;50828;53.756;21.140;2023-02-14T09:40:32;101526.84;;;4.15;74.56
64460;BME280;50828;53.756;21.140;2023-02-14T09:45:41;101536.48;;;4.21;74.31
64460;BME280;50828;53.756;21.140;2023-02-14T09:50:50;101535.84;;;4.26;74.16
64460;BME280;50828;53.756;21.140;2023-02-14T09:56:05;101545.12;;;4.32;74.26
64460;BME280;50828;53.756;21.140;2023-02-14T10:01:18;101544.13;;;4.38;74.23
64460;BME280;50828;53.756;21.140;2023-02-14T10:06:39;101550.10;;;4.44;74.22
64460;BME280;50828;53.756;21.140;2023-02-14T10:11:50;101549.62;;;4.48;73.90
64460;BME280;50828;53.756;21.140;2023-02-14T10:17:00;101544.95;;;4.55;74.28
64460;BME280;50828;53.756;21.140;2023-02-14T10:22:15;101545.35;;;4.62;73.99
64460;BME280;50828;53.756;21.140;2023-02-14T10:27:31;101537.36;;;4.68;73.79
64460;BME280;50828;53.756;21.140;2023-02-14T10:32:44;101540.02;;;4.73;73.78
64460;BME280;50828;53.756;21.140;2023-02-14T10:38:04;101548.96;;;4.79;73.72
64460;BME280;50828;53.756;21.140;2023-02-14T10:43:25;101543.23;;;4.85;73.79
64460;BME280;50828;53.756;21.140;2023-02-14T10:48:48;101530.02;;;4.91;73.52
64460;BME280;50828;53.756;21.140;2023-02-14T10:54:05;101530.05;;;4.99;73.45
64460;BME280;50828;53.756;21.140;2023-02-14T10:59:21;101527.63;;;5.04;73.40
64460;BME280;50828;53.756;21.140;2023-02-14T11:04:33;101526.25;;;5.06;73.09
64460;BME280;50828;53.756;21.140;2023-02-14T11:09:42;101522.42;;;5.09;73.12
64460;BME280;50828;53.756;21.140;2023-02-14T11:14:57;101526.29;;;5.13;73.21
64460;BME280;50828;53.756;21.140;2023-02-14T11:20:26;101532.05;;;5.15;72.86
64460;BME280;50828;53.756;21.140;2023-02-14T11:25:36;101531.71;;;5.17;72.95
64460;BME280;50828;53.756;21.140;2023-02-14T11:30:44;101531.55;;;5.20;73.03
64460;BME280;50828;53.756;21.140;2023-02-14T11:35:53;101527.38;;;5.23;72.85
64460;BME280;50828;53.756;21.140;2023-02-14T11:41:01;101528.09;;;5.26;72.61
64460;BME280;50828;53.756;21.140;2023-02-14T11:46:26;101528.27;;;5.27;72.66
64460;BME280;50828;53.756;21.140;2023-02-14T11:51:41;101524.45;;;5.31;72.92
64460;BME280;50828;53.756;21.140;2023-02-14T11:56:53;101516.24;;;5.34;72.55
64460;BME280;50828;53.756;21.140;2023-02-14T12:02:10;101513.97;;;5.35;72.58
64460;BME280;50828;53.756;21.140;2023-02-14T12:07:27;101513.98;;;5.38;72.61
64460;BME280;50828;53.756;21.140;2023-02-14T12:12:36;101514.88;;;5.42;72.64
64460;BME280;50828;53.756;21.140;2023-02-14T12:17:47;101511.73;;;5.47;72.68
64460;BME280;50828;53.756;21.140;2023-02-14T12:23:03;101508.95;;;5.53;72.67
64460;BME280;50828;53.756;21.140;2023-02-14T12:28:21;101506.20;;;5.61;72.78
64460;BME280;50828;53.756;21.140;2023-02-14T12:33:34;101506.55;;;5.67;72.74
64460;BME280;50828;53.756;21.140;2023-02-14T12:38:51;101505.86;;;5.75;72.40
64460;BME280;50828;53.756;21.140;2023-02-14T12:44:11;101499.07;;;5.80;72.30
64460;BME280;50828;53.756;21.140;2023-02-14T12:49:42;101496.44;;;5.82;71.84
64460;BME280;50828;53.756;21.140;2023-02-14T12:55:03;101492.59;;;5.83;72.02
64460;BME280;50828;53.756;21.140;2023-02-14T13:00:26;101491.55;;;5.84;71.81
64460;BME280;50828;53.756;21.140;2023-02-14T13:05:46;101494.52;;;5.85;71.62
64460;BME280;50828;53.756;21.140;2023-02-14T13:11:04;101492.24;;;5.85;71.47
64460;BME280;50828;53.756;21.140;2023-02-14T13:16:26;101479.13;;;5.84;71.43
64460;BME280;50828;53.756;21.140;2023-02-14T13:21:39;101475.11;;;5.84;71.21
64460;BME280;50828;53.756;21.140;2023-02-14T13:26:50;101480.19;;;5.86;71.64
64460;BME280;50828;53.756;21.140;2023-02-14T13:31:59;101476.86;;;5.91;71.46
64460;BME280;50828;53.756;21.140;2023-02-14T13:37:11;101479.52;;;5.97;71.40
64460;BME280;50828;53.756;21.140;2023-02-14T13:42:52;101481.45;;;6.01;71.10
64460;BME280;50828;53.756;21.140;2023-02-14T13:48:08;101477.08;;;6.02;71.18
64460;BME280;50828;53.756;21.140;2023-02-14T13:53:37;101475.69;;;6.03;71.01
64460;BME280;50828;53.756;21.140;2023-02-14T13:58:50;101480.23;;;6.05;71.00
64460;BME280;50828;53.756;21.140;2023-02-14T14:04:00;101479.00;;;6.06;70.62
64460;BME280;50828;53.756;21.140;2023-02-14T14:15:12;101479.88;;;6.06;70.69
64460;BME280;50828;53.756;21.140;2023-02-14T14:20:47;101483.39;;;6.06;70.47
64460;BME280;50828;53.756;21.140;2023-02-14T14:25:56;101486.70;;;6.09;70.67
64460;BME280;50828;53.756;21.140;2023-02-14T14:31:12;101487.40;;;6.09;70.29
64460;BME280;50828;53.756;21.140;2023-02-14T14:36:24;101487.92;;;6.08;70.09
64460;BME280;50828;53.756;21.140;2023-02-14T14:41:33;101487.92;;;6.08;69.88
64460;BME280;50828;53.756;21.140;2023-02-14T14:46:42;101489.32;;;6.02;69.59
64460;BME280;50828;53.756;21.140;2023-02-14T14:51:50;101496.13;;;5.98;69.76
64460;BME280;50828;53.756;21.140;2023-02-14T14:56:59;101496.63;;;5.93;69.66
64460;BME280;50828;53.756;21.140;2023-02-14T15:02:22;101496.79;;;5.89;69.78
64460;BME280;50828;53.756;21.140;2023-02-14T15:07:33;101501.52;;;5.84;69.65
64460;BME280;50828;53.756;21.140;2023-02-14T15:12:42;101509.36;;;5.79;69.46
64460;BME280;50828;53.756;21.140;2023-02-14T15:18:13;101506.91;;;5.72;69.54
64460;BME280;50828;53.756;21.140;2023-02-14T15:23:23;101508.81;;;5.65;69.29
64460;BME280;50828;53.756;21.140;2023-02-14T15:28:35;101512.98;;;5.58;69.28
64460;BME280;50828;53.756;21.140;2023-02-14T15:33:44;101516.98;;;5.51;69.28
64460;BME280;50828;53.756;21.140;2023-02-14T15:38:53;101512.95;;;5.43;69.36
64460;BME280;50828;53.756;21.140;2023-02-14T15:44:03;101511.88;;;5.34;69.31
64460;BME280;50828;53.756;21.140;2023-02-14T15:49:18;101510.80;;;5.27;69.48
64460;BME280;50828;53.756;21.140;2023-02-14T15:54:34;101518.98;;;5.20;69.62
64460;BME280;50828;53.756;21.140;2023-02-14T15:59:44;101527.33;;;5.14;69.57
64460;BME280;50828;53.756;21.140;2023-02-14T16:04:51;101529.75;;;5.07;69.54
64460;BME280;50828;53.756;21.140;2023-02-14T16:10:23;101530.59;;;5.01;69.75
64460;BME280;50828;53.756;21.140;2023-02-14T16:15:35;101533.16;;;4.92;69.84
64460;BME280;50828;53.756;21.140;2023-02-14T16:20:45;101527.54;;;4.86;69.79
64460;BME280;50828;53.756;21.140;2023-02-14T16:25:54;101536.39;;;4.79;69.86
64460;BME280;50828;53.756;21.140;2023-02-14T16:31:05;101536.86;;;4.72;69.94
64460;BME280;50828;53.756;21.140;2023-02-14T16:36:20;101543.80;;;4.64;70.04
64460;BME280;50828;53.756;21.140;2023-02-14T16:41:31;101543.91;;;4.55;70.35
64460;BME280;50828;53.756;21.140;2023-02-14T16:46:41;101551.59;;;4.55;70.43
64460;BME280;50828;53.756;21.140;2023-02-14T16:51:52;101559.59;;;4.51;70.38
64460;BME280;50828;53.756;21.140;2023-02-14T16:57:03;101557.98;;;4.46;70.53
64460;BME280;50828;53.756;21.140;2023-02-14T17:02:11;101558.98;;;4.41;70.63
64460;BME280;50828;53.756;21.140;2023-02-14T17:07:21;101558.77;;;4.36;70.64
64460;BME280;50828;53.756;21.140;2023-02-14T17:12:31;101564.32;;;4.33;70.69
64460;BME280;50828;53.756;21.140;2023-02-14T17:17:43;101570.90;;;4.29;70.84
64460;BME280;50828;53.756;21.140;2023-02-14T17:22:52;101570.17;;;4.25;70.99
64460;BME280;50828;53.756;21.140;2023-02-14T17:28:04;101566.83;;;4.20;70.93
64460;BME280;50828;53.756;21.140;2023-02-14T17:33:12;101569.06;;;4.17;71.07
64460;BME280;50828;53.756;21.140;2023-02-14T17:38:21;101568.17;;;4.15;71.05
64460;BME280;50828;53.756;21.140;2023-02-14T17:43:31;101564.98;;;4.11;71.08
64460;BME280;50828;53.756;21.140;2023-02-14T17:48:39;101566.88;;;4.08;71.13
64460;BME280;50828;53.756;21.140;2023-02-14T17:53:46;101572.95;;;4.04;71.25
64460;BME280;50828;53.756;21.140;2023-02-14T17:58:55;101575.36;;;4.02;71.17
64460;BME280;50828;53.756;21.140;2023-02-14T18:04:05;101573.60;;;3.99;71.47
64460;BME280;50828;53.756;21.140;2023-02-14T18:09:14;101571.29;;;3.95;71.41
64460;BME280;50828;53.756;21.140;2023-02-14T18:14:23;101569.52;;;3.93;71.41
64460;BME280;50828;53.756;21.140;2023-02-14T18:19:32;101576.64;;;3.91;71.74
64460;BME280;50828;53.756;21.140;2023-02-14T18:24:39;101579.60;;;3.89;71.64
64460;BME280;50828;53.756;21.140;2023-02-14T18:29:48;101575.38;;;3.87;71.80
64460;BME280;50828;53.756;21.140;2023-02-14T18:34:57;101577.96;;;3.84;71.83
64460;BME280;50828;53.756;21.140;2023-02-14T18:40:08;101579.52;;;3.82;71.76
64460;BME280;50828;53.756;21.140;2023-02-14T18:45:17;101580.55;;;3.80;71.83
64460;BME280;50828;53.756;21.140;2023-02-14T18:50:26;101577.23;;;3.79;71.97
64460;BME280;50828;53.756;21.140;2023-02-14T18:55:34;101572.33;;;3.77;71.90
64460;BME280;50828;53.756;21.140;2023-02-14T19:00:42;101572.48;;;3.77;71.98
64460;BME280;50828;53.756;21.140;2023-02-14T19:05:52;101569.35;;;3.76;72.01
64460;BME280;50828;53.756;21.140;2023-02-14T19:11:00;101572.98;;;3.75;71.95
64460;BME280;50828;53.756;21.140;2023-02-14T19:16:13;101569.13;;;3.73;72.16
64460;BME280;50828;53.756;21.140;2023-02-14T19:21:22;101571.37;;;3.70;72.20
64460;BME280;50828;53.756;21.140;2023-02-14T19:26:31;101566.44;;;3.66;72.14
64460;BME280;50828;53.756;21.140;2023-02-14T19:31:41;101568.68;;;3.64;72.29
64460;BME280;50828;53.756;21.140;2023-02-14T19:36:50;101569.88;;;3.62;72.23
64460;BME280;50828;53.756;21.140;2023-02-14T19:41:59;101575.41;;;3.58;72.18
64460;BME280;50828;53.756;21.140;2023-02-14T19:47:09;101581.27;;;3.54;72.07
64460;BME280;50828;53.756;21.140;2023-02-14T19:52:35;101584.70;;;3.48;72.09
64460;BME280;50828;53.756;21.140;2023-02-14T19:57:43;101586.55;;;3.45;72.09
64460;BME280;50828;53.756;21.140;2023-02-14T20:02:53;101582.15;;;3.40;72.07
64460;BME280;50828;53.756;21.140;2023-02-14T20:08:00;101582.63;;;3.35;72.14
64460;BME280;50828;53.756;21.140;2023-02-14T20:13:09;101587.45;;;3.31;72.12
64460;BME280;50828;53.756;21.140;2023-02-14T20:18:16;101589.83;;;3.27;72.17
64460;BME280;50828;53.756;21.140;2023-02-14T20:23:24;101595.54;;;3.25;72.28
64460;BME280;50828;53.756;21.140;2023-02-14T20:28:32;101587.48;;;3.21;72.39
64460;BME280;50828;53.756;21.140;2023-02-14T20:33:39;101590.58;;;3.18;72.39
64460;BME280;50828;53.756;21.140;2023-02-14T20:38:52;101588.96;;;3.15;72.47
64460;BME280;50828;53.756;21.140;2023-02-14T20:44:07;101586.30;;;3.11;72.50
64460;BME280;50828;53.756;21.140;2023-02-14T20:49:17;101588.55;;;3.09;72.51
64460;BME280;50828;53.756;21.140;2023-02-14T20:54:27;101588.70;;;3.08;72.73
64460;BME280;50828;53.756;21.140;2023-02-14T20:59:36;101586.09;;;3.07;72.70
64460;BME280;50828;53.756;21.140;2023-02-14T21:04:44;101583.79;;;3.05;72.75
64460;BME280;50828;53.756;21.140;2023-02-14T21:09:51;101581.67;;;3.04;72.70
64460;BME280;50828;53.756;21.140;2023-02-14T21:14:59;101582.20;;;3.04;72.77
64460;BME280;50828;53.756;21.140;2023-02-14T21:20:09;101581.48;;;3.03;72.88
64460;BME280;50828;53.756;21.140;2023-02-14T21:25:18;101586.16;;;3.02;72.85
64460;BME280;50828;53.756;21.140;2023-02-14T21:30:29;101581.64;;;3.01;72.94
64460;BME280;50828;53.756;21.140;2023-02-14T21:35:38;101583.38;;;3.01;72.94
64460;BME280;50828;53.756;21.140;2023-02-14T21:40:48;101585.98;;;3.01;73.05
64460;BME280;50828;53.756;21.140;2023-02-14T21:45:56;101576.91;;;2.99;72.96
64460;BME280;50828;53.756;21.140;2023-02-14T21:51:08;101583.86;;;2.98;73.00
64460;BME280;50828;53.756;21.140;2023-02-14T21:56:17;101581.05;;;2.97;73.05
64460;BME280;50828;53.756;21.140;2023-02-14T22:01:28;101579.83;;;2.96;73.15
64460;BME280;50828;53.756;21.140;2023-02-14T22:06:39;101577.56;;;2.96;73.15
64460;BME280;50828;53.756;21.140;2023-02-14T22:11:48;101577.02;;;2.95;73.21
64460;BME280;50828;53.756;21.140;2023-02-14T22:16:56;101581.88;;;2.94;73.21
64460;BME280;50828;53.756;21.140;2023-02-14T22:22:03;101585.86;;;2.92;73.18
64460;BME280;50828;53.756;21.140;2023-02-14T22:27:12;101582.52;;;2.91;73.33
64460;BME280;50828;53.756;21.140;2023-02-14T22:32:21;101581.30;;;2.90;73.26
64460;BME280;50828;53.756;21.140;2023-02-14T22:37:31;101581.13;;;2.89;73.25
64460;BME280;50828;53.756;21.140;2023-02-14T22:42:39;101580.41;;;2.88;73.24
64460;BME280;50828;53.756;21.140;2023-02-14T22:47:47;101576.90;;;2.87;73.24
64460;BME280;50828;53.756;21.140;2023-02-14T22:52:56;101575.15;;;2.86;73.28
64460;BME280;50828;53.756;21.140;2023-02-14T22:58:04;101573.41;;;2.85;73.25
64460;BME280;50828;53.756;21.140;2023-02-14T23:03:12;101572.00;;;2.85;73.32
64460;BME280;50828;53.756;21.140;2023-02-14T23:08:21;101571.98;;;2.84;73.25
64460;BME280;50828;53.756;21.140;2023-02-14T23:13:28;101567.96;;;2.82;73.38
64460;BME280;50828;53.756;21.140;2023-02-14T23:18:53;101570.89;;;2.80;73.40
64460;BME280;50828;53.756;21.140;2023-02-14T23:24:19;101564.02;;;2.75;73.38
64460;BME280;50828;53.756;21.140;2023-02-14T23:29:28;101558.94;;;2.72;73.44
64460;BME280;50828;53.756;21.140;2023-02-14T23:34:37;101555.96;;;2.71;73.37
64460;BME280;50828;53.756;21.140;2023-02-14T23:39:45;101553.88;;;2.70;73.48
64460;BME280;50828;53.756;21.140;2023-02-14T23:44:52;101552.80;;;2.69;73.41
64460;BME280;50828;53.756;21.140;2023-02-14T23:50:22;101550.52;;;2.68;73.47
64460;BME280;50828;53.756;21.140;2023-02-14T23:55:29;101552.75;;;2.66;73.51
